Time;durP1;ratioP1;P1;durP2;ratioP2;P2;SDS_P1;SDS_P2;PMS_P1;PMS_P2;Temp;Humidity;BMP_temperature;BMP_pressure;BME280_temperature;BME280_humidity;BME280_pressure;Samples;Min_cycle;Max_cycle;Signal;HPM_P1;HPM_P2
2022/05/19 00:01:05;;;;;;;2.93;2.40;;;;;;;;;;5011740;28;20248;-41
2022/05/19 00:03:33;;;;;;;4.17;2.10;;;;;;;;;;5005591;28;20220;-35
2022/05/19 00:06:02;;;;;;;3.50;2.13;;;;;;;;;;5006009;28;20223;-38
2022/05/19 00:08:29;;;;;;;2.37;1.70;;;;;;;;;;5013374;28;20206;-34
2022/05/19 00:10:57;;;;;;;2.63;1.87;;;;;;;;;;5014101;28;20203;-38
2022/05/19 00:13:25;;;;;;;2.50;1.80;;;;;;;;;;5002495;28;20215;-37
2022/05/19 00:15:52;;;;;;;2.27;1.83;;;;;;;;;;5013398;28;20241;-38
2022/05/19 00:18:19;;;;;;;2.20;2.00;;;;;;;;;;5010689;28;20203;-36
2022/05/19 00:20:46;;;;;;;2.43;2.17;;;;;;;;;;5004855;28;20223;-37
2022/05/19 00:23:15;;;;;;;1.90;1.80;;;;;;;;;;5012209;28;20210;-39
2022/05/19 00:25:42;;;;;;;3.73;2.23;;;;;;;;;;5007613;28;20226;-42
2022/05/19 00:28:10;;;;;;;3.90;2.20;;;;;;;;;;5011547;28;20199;-37
2022/05/19 00:30:38;;;;;;;3.17;2.07;;;;;;;;;;5012107;28;20210;-34
2022/05/19 00:33:05;;;;;;;1.70;1.60;;;;;;;;;;5001117;28;20294;-39
2022/05/19 00:35:32;;;;;;;4.20;2.00;;;;;;;;;;5007996;28;20257;-43
2022/05/19 00:37:59;;;;;;;3.20;1.90;;;;;;;;;;5011719;28;20273;-36
2022/05/19 00:40:28;;;;;;;4.53;2.20;;;;;;;;;;5012198;28;20222;-43
2022/05/19 00:42:55;;;;;;;2.10;1.90;;;;;;;;;;5001246;28;20203;-38
2022/05/19 00:45:23;;;;;;;2.70;1.93;;;;;;;;;;5008617;28;20229;-38
2022/05/19 00:47:52;;;;;;;2.00;1.90;;;;;;;;;;5003069;28;20215;-36
2022/05/19 00:50:22;;;;;;;3.37;2.20;;;;;;;;;;4999297;28;20202;-39
2022/05/19 00:52:50;;;;;;;6.83;2.00;;;;;;;;;;5011655;28;20203;-34
2022/05/19 00:55:18;;;;;;;2.37;1.90;;;;;;;;;;5003252;28;20207;-40
2022/05/19 00:57:48;;;;;;;2.13;1.90;;;;;;;;;;5001673;28;20215;-35
2022/05/19 01:00:17;;;;;;;1.73;1.63;;;;;;;;;;5007760;28;20209;-35
2022/05/19 01:02:47;;;;;;;2.00;1.80;;;;;;;;;;4993774;28;20293;-37
2022/05/19 01:05:16;;;;;;;1.93;1.80;;;;;;;;;;5011895;28;20232;-36
2022/05/19 01:07:46;;;;;;;3.10;1.90;;;;;;;;;;5010794;28;20204;-33
2022/05/19 01:10:14;;;;;;;2.80;2.10;;;;;;;;;;5010005;28;20260;-37
2022/05/19 01:12:42;;;;;;;4.57;1.77;;;;;;;;;;5003033;28;20217;-41
2022/05/19 01:15:11;;;;;;;1.87;1.73;;;;;;;;;;5011223;28;20199;-34
2022/05/19 01:17:38;;;;;;;2.10;1.90;;;;;;;;;;5004544;28;20288;-39
2022/05/19 01:20:10;;;;;;;2.37;1.87;;;;;;;;;;5011633;28;20297;-36
2022/05/19 01:22:40;;;;;;;3.53;1.83;;;;;;;;;;5011242;28;20216;-35
2022/05/19 01:25:09;;;;;;;2.70;2.17;;;;;;;;;;5008963;28;20210;-35
2022/05/19 01:27:38;;;;;;;1.93;1.80;;;;;;;;;;4998345;28;20206;-41
2022/05/19 01:30:07;;;;;;;3.87;1.90;;;;;;;;;;5010892;28;20202;-35
2022/05/19 01:32:34;;;;;;;2.40;2.13;;;;;;;;;;5004015;28;20237;-38
2022/05/19 01:35:01;;;;;;;1.80;1.70;;;;;;;;;;5010090;28;20205;-34
2022/05/19 01:37:29;;;;;;;4.20;1.73;;;;;;;;;;5010360;28;20224;-38
2022/05/19 01:39:59;;;;;;;2.30;1.83;;;;;;;;;;5005528;28;20217;-42
2022/05/19 01:42:37;;;;;;;1.90;1.80;;;;;;;;;;5008655;28;20221;-34
2022/05/19 01:45:12;;;;;;;2.23;1.57;;;;;;;;;;5010816;28;20558;-32
2022/05/19 01:47:44;;;;;;;2.10;2.00;;;;;;;;;;5006296;28;20236;-40
2022/05/19 01:50:13;;;;;;;4.20;2.00;;;;;;;;;;5005594;28;20207;-39
2022/05/19 01:52:42;;;;;;;2.53;2.33;;;;;;;;;;5010552;28;20269;-38
2022/05/19 01:55:13;;;;;;;3.70;2.30;;;;;;;;;;5011377;28;20212;-38
2022/05/19 01:57:43;;;;;;;2.33;2.17;;;;;;;;;;4995396;28;20206;-39
2022/05/19 02:00:15;;;;;;;3.40;1.90;;;;;;;;;;5007428;28;20319;-39
2022/05/19 02:02:45;;;;;;;2.07;1.90;;;;;;;;;;5009718;28;20225;-35
2022/05/19 02:05:18;;;;;;;1.90;1.80;;;;;;;;;;5010296;28;20209;-35
2022/05/19 02:07:46;;;;;;;2.40;2.13;;;;;;;;;;5010751;28;20205;-40
2022/05/19 02:10:17;;;;;;;4.23;2.10;;;;;;;;;;5007446;28;20239;-41
2022/05/19 02:12:44;;;;;;;5.03;2.27;;;;;;;;;;5004758;28;20734;-35
2022/05/19 02:15:14;;;;;;;3.87;1.93;;;;;;;;;;5009890;28;20224;-35
2022/05/19 02:17:42;;;;;;;2.20;2.10;;;;;;;;;;5006499;28;20252;-35
2022/05/19 02:20:11;;;;;;;4.53;1.90;;;;;;;;;;4996414;28;20205;-34
2022/05/19 02:22:40;;;;;;;1.77;1.63;;;;;;;;;;5009673;28;20451;-36
2022/05/19 02:25:11;;;;;;;4.23;2.00;;;;;;;;;;5009828;28;20211;-38
2022/05/19 02:27:41;;;;;;;3.20;1.60;;;;;;;;;;4997945;28;20228;-38
2022/05/19 02:30:09;;;;;;;5.17;2.07;;;;;;;;;;5005333;28;20232;-37
2022/05/19 02:32:37;;;;;;;2.20;2.00;;;;;;;;;;4999786;28;20219;-32
2022/05/19 02:35:05;;;;;;;2.63;1.90;;;;;;;;;;5009037;28;20263;-34
2022/05/19 02:37:32;;;;;;;4.07;1.97;;;;;;;;;;5009686;28;20233;-39
2022/05/19 02:39:59;;;;;;;2.23;1.70;;;;;;;;;;5010383;28;20216;-38
2022/05/19 02:42:27;;;;;;;2.90;2.00;;;;;;;;;;5005662;28;20224;-36
2022/05/19 02:44:54;;;;;;;2.13;1.93;;;;;;;;;;5001655;28;20204;-38
2022/05/19 02:47:21;;;;;;;1.87;1.77;;;;;;;;;;5004684;28;20225;-35
2022/05/19 02:49:49;;;;;;;2.07;1.87;;;;;;;;;;5002126;28;20216;-36
2022/05/19 02:52:16;;;;;;;1.90;1.80;;;;;;;;;;5009278;28;20204;-38
2022/05/19 02:54:44;;;;;;;3.03;1.70;;;;;;;;;;5009969;28;20210;-35
2022/05/19 02:57:11;;;;;;;4.03;1.70;;;;;;;;;;5003977;28;20229;-35
2022/05/19 02:59:38;;;;;;;1.83;1.70;;;;;;;;;;5006509;28;20204;-39
2022/05/19 03:02:05;;;;;;;1.83;1.67;;;;;;;;;;5005543;28;20321;-38
2022/05/19 03:04:33;;;;;;;2.33;1.90;;;;;;;;;;4998579;28;20225;-34
2022/05/19 03:07:01;;;;;;;1.70;1.60;;;;;;;;;;5009894;28;20218;-35
2022/05/19 03:09:29;;;;;;;2.57;1.93;;;;;;;;;;5010507;28;20208;-39
2022/05/19 03:11:56;;;;;;;3.17;2.10;;;;;;;;;;5010078;28;20206;-33
2022/05/19 03:14:23;;;;;;;2.60;2.40;;;;;;;;;;5013214;28;20209;-37
2022/05/19 03:16:51;;;;;;;2.17;1.97;;;;;;;;;;5011386;28;20225;-37
2022/05/19 03:19:18;;;;;;;3.37;1.87;;;;;;;;;;4995204;28;20214;-39
2022/05/19 03:21:45;;;;;;;1.63;1.60;;;;;;;;;;5011541;28;20231;-40
2022/05/19 03:24:14;;;;;;;4.30;2.30;;;;;;;;;;5013388;28;20214;-41
2022/05/19 03:26:41;;;;;;;2.40;2.20;;;;;;;;;;5010525;28;20229;-34
2022/05/19 03:29:08;;;;;;;1.97;1.87;;;;;;;;;;5017096;28;20255;-35
2022/05/19 03:31:35;;;;;;;2.10;1.83;;;;;;;;;;5016091;28;20200;-36
2022/05/19 03:34:02;;;;;;;2.87;2.33;;;;;;;;;;4999644;28;20209;-39
2022/05/19 03:36:30;;;;;;;2.93;1.80;;;;;;;;;;5010321;28;20298;-38
2022/05/19 03:38:57;;;;;;;1.80;1.70;;;;;;;;;;4994458;28;20220;-40
2022/05/19 03:41:25;;;;;;;2.67;2.00;;;;;;;;;;4994938;28;20224;-40
2022/05/19 03:43:53;;;;;;;4.33;2.17;;;;;;;;;;5009594;28;20216;-36
2022/05/19 03:46:20;;;;;;;2.63;1.60;;;;;;;;;;5015641;28;20219;-36
2022/05/19 03:48:48;;;;;;;1.87;1.77;;;;;;;;;;5010952;28;20208;-38
2022/05/19 03:51:19;;;;;;;2.07;1.80;;;;;;;;;;5016018;28;20196;-41
2022/05/19 03:53:46;;;;;;;1.97;1.87;;;;;;;;;;5016209;28;20203;-35
2022/05/19 03:56:13;;;;;;;3.33;2.17;;;;;;;;;;5016026;28;20241;-36
2022/05/19 03:58:41;;;;;;;5.03;2.10;;;;;;;;;;4999107;28;20212;-33
2022/05/19 04:01:08;;;;;;;1.60;1.50;;;;;;;;;;5016005;28;20296;-37
2022/05/19 04:03:36;;;;;;;2.20;2.00;;;;;;;;;;5011173;28;20210;-33
2022/05/19 04:06:03;;;;;;;2.30;2.03;;;;;;;;;;5016319;28;20234;-41
2022/05/19 04:08:31;;;;;;;1.83;1.73;;;;;;;;;;5016584;28;20210;-37
2022/05/19 04:10:59;;;;;;;2.20;1.97;;;;;;;;;;5014518;28;20203;-36
2022/05/19 04:13:26;;;;;;;2.40;2.20;;;;;;;;;;5016316;28;20210;-39
2022/05/19 04:15:55;;;;;;;4.00;3.10;;;;;;;;;;5015989;28;20318;-36
2022/05/19 04:18:22;;;;;;;3.43;1.93;;;;;;;;;;5007869;28;20293;-34
2022/05/19 04:20:49;;;;;;;2.17;2.00;;;;;;;;;;5015607;28;20208;-38
2022/05/19 04:23:18;;;;;;;3.03;2.17;;;;;;;;;;5016196;28;20230;-40
2022/05/19 04:25:45;;;;;;;2.07;1.93;;;;;;;;;;5015975;28;20227;-32
2022/05/19 04:28:15;;;;;;;6.90;2.40;;;;;;;;;;5013548;28;20230;-37
2022/05/19 04:30:43;;;;;;;2.30;2.10;;;;;;;;;;5014143;28;20195;-36
2022/05/19 04:33:12;;;;;;;2.73;1.87;;;;;;;;;;5007517;28;20196;-40
2022/05/19 04:35:39;;;;;;;2.40;2.20;;;;;;;;;;5015105;28;20230;-38
2022/05/19 04:38:07;;;;;;;2.00;1.83;;;;;;;;;;5015895;28;20212;-36
2022/05/19 04:40:36;;;;;;;4.43;1.83;;;;;;;;;;5267849;22;20457;-32
2022/05/19 04:43:04;;;;;;;3.63;2.17;;;;;;;;;;5027505;28;20224;-30
2022/05/19 04:45:31;;;;;;;2.03;1.93;;;;;;;;;;5031138;28;20219;-30
2022/05/19 04:47:58;;;;;;;4.50;2.10;;;;;;;;;;5026854;28;20210;-33
2022/05/19 04:50:26;;;;;;;4.20;2.87;;;;;;;;;;5030571;28;20207;-32
2022/05/19 04:52:53;;;;;;;3.00;2.17;;;;;;;;;;5030351;28;20195;-30
2022/05/19 04:55:21;;;;;;;3.17;1.97;;;;;;;;;;5021246;28;20214;-32
2022/05/19 04:57:48;;;;;;;4.33;2.20;;;;;;;;;;5028964;28;20208;-30
2022/05/19 05:00:15;;;;;;;2.63;1.80;;;;;;;;;;5031523;28;20311;-34
2022/05/19 05:02:43;;;;;;;2.37;2.10;;;;;;;;;;5025029;28;20229;-32
2022/05/19 05:05:11;;;;;;;4.03;2.23;;;;;;;;;;5023411;28;20216;-31
2022/05/19 05:07:39;;;;;;;4.47;2.27;;;;;;;;;;5030615;28;20202;-33
2022/05/19 05:10:06;;;;;;;2.70;2.50;;;;;;;;;;5027007;28;20226;-33
2022/05/19 05:12:34;;;;;;;2.73;2.20;;;;;;;;;;5019603;28;20207;-29
2022/05/19 05:15:01;;;;;;;2.57;2.30;;;;;;;;;;5030735;28;20406;-34
2022/05/19 05:17:28;;;;;;;3.73;2.10;;;;;;;;;;5025633;28;20226;-34
2022/05/19 05:19:55;;;;;;;2.33;2.13;;;;;;;;;;5022173;28;20212;-28
2022/05/19 05:22:22;;;;;;;6.30;2.30;;;;;;;;;;5029623;28;20227;-30
2022/05/19 05:24:51;;;;;;;4.27;2.40;;;;;;;;;;5030518;28;20220;-32
2022/05/19 05:27:18;;;;;;;4.13;2.50;;;;;;;;;;5017311;28;20251;-31
2022/05/19 05:29:45;;;;;;;3.17;2.47;;;;;;;;;;5028435;28;20212;-33
2022/05/19 05:32:12;;;;;;;3.57;2.50;;;;;;;;;;5022388;28;20204;-34
2022/05/19 05:34:39;;;;;;;8.30;2.47;;;;;;;;;;5019729;28;20216;-33
2022/05/19 05:37:07;;;;;;;3.07;2.27;;;;;;;;;;5030152;28;20587;-32
2022/05/19 05:39:35;;;;;;;3.87;2.90;;;;;;;;;;5030346;28;20679;-33
2022/05/19 05:42:04;;;;;;;5.67;2.50;;;;;;;;;;5025869;28;20231;-32
2022/05/19 05:44:32;;;;;;;3.53;2.37;;;;;;;;;;5022418;28;20214;-36
2022/05/19 05:46:59;;;;;;;2.80;2.20;;;;;;;;;;5025610;28;20229;-32
2022/05/19 05:49:26;;;;;;;4.27;2.37;;;;;;;;;;5018148;28;20205;-31
2022/05/19 05:51:53;;;;;;;2.40;2.20;;;;;;;;;;5029715;28;20197;-31
2022/05/19 05:54:20;;;;;;;3.13;2.50;;;;;;;;;;5028175;28;20197;-35
2022/05/19 05:56:47;;;;;;;4.47;2.43;;;;;;;;;;5014823;28;20234;-32
2022/05/19 05:59:16;;;;;;;3.53;2.30;;;;;;;;;;5029508;28;20207;-34
2022/05/19 06:01:43;;;;;;;4.97;2.37;;;;;;;;;;5026941;28;20209;-32
2022/05/19 06:04:10;;;;;;;6.00;2.20;;;;;;;;;;5027448;28;20206;-30
2022/05/19 06:06:37;;;;;;;4.83;2.27;;;;;;;;;;5029417;28;20222;-31
2022/05/19 06:09:04;;;;;;;2.73;2.30;;;;;;;;;;5030039;28;20210;-34
2022/05/19 06:11:31;;;;;;;2.93;2.37;;;;;;;;;;5014396;28;20232;-30
2022/05/19 06:13:58;;;;;;;2.30;2.13;;;;;;;;;;5017112;28;20236;-30
2022/05/19 06:16:28;;;;;;;3.73;2.20;;;;;;;;;;5028873;28;20726;-30
2022/05/19 06:18:55;;;;;;;2.90;2.03;;;;;;;;;;5019885;28;20209;-32
2022/05/19 06:21:22;;;;;;;6.87;2.23;;;;;;;;;;5029686;28;20205;-33
2022/05/19 06:23:49;;;;;;;4.37;2.00;;;;;;;;;;5029044;28;20252;-30
2022/05/19 06:26:17;;;;;;;2.07;1.87;;;;;;;;;;5023576;28;20230;-29
2022/05/19 06:28:44;;;;;;;3.40;2.50;;;;;;;;;;5024438;28;20578;-31
2022/05/19 06:31:11;;;;;;;3.93;2.10;;;;;;;;;;5030167;28;20298;-35
2022/05/19 06:33:40;;;;;;;4.87;2.40;;;;;;;;;;5015059;28;20203;-31
2022/05/19 06:36:09;;;;;;;2.35;1.90;;;;;;;;;;5023133;28;20700;-30
2022/05/19 06:38:37;;;;;;;4.80;2.20;;;;;;;;;;5029729;28;20205;-33
2022/05/19 06:43:49;;;;;;;3.05;2.17;;;;;;;;;;5027811;28;20276;-33
2022/05/19 06:46:16;;;;;;;2.50;1.88;;;;;;;;;;5034097;28;20223;-31
2022/05/19 06:48:44;;;;;;;2.50;1.77;;;;;;;;;;5018304;28;20208;-28
2022/05/19 06:51:11;;;;;;;3.95;2.10;;;;;;;;;;5033342;28;20206;-33
2022/05/19 06:53:39;;;;;;;2.67;2.47;;;;;;;;;;5033451;28;20202;-32
2022/05/19 06:56:08;;;;;;;6.47;2.10;;;;;;;;;;5030567;28;20229;-30
2022/05/19 06:58:35;;;;;;;2.10;1.65;;;;;;;;;;5027392;28;20208;-34
2022/05/19 07:01:03;;;;;;;3.72;2.35;;;;;;;;;;5033780;28;20648;-33
2022/05/19 07:03:30;;;;;;;2.53;2.03;;;;;;;;;;5024039;28;20268;-33
2022/05/19 07:05:58;;;;;;;4.15;1.90;;;;;;;;;;5033312;28;20423;-32
2022/05/19 07:08:25;;;;;;;2.60;2.10;;;;;;;;;;5033920;28;20210;-32
2022/05/19 07:10:52;;;;;;;3.28;2.03;;;;;;;;;;5029069;28;20207;-30
2022/05/19 07:13:20;;;;;;;3.30;1.80;;;;;;;;;;5030211;28;20206;-31
2022/05/19 07:15:47;;;;;;;2.83;1.90;;;;;;;;;;5033560;28;20230;-31
2022/05/19 07:18:14;;;;;;;4.43;2.00;;;;;;;;;;5019261;28;20209;-31
2022/05/19 07:20:43;;;;;;;3.13;1.73;;;;;;;;;;5024002;28;20213;-31
2022/05/19 07:23:14;;;;;;;2.60;1.83;;;;;;;;;;5032373;28;20230;-30
2022/05/19 07:25:42;;;;;;;3.45;2.20;;;;;;;;;;5033177;28;20230;-32
2022/05/19 07:28:09;;;;;;;4.50;2.20;;;;;;;;;;5020654;28;20207;-34
2022/05/19 07:30:36;;;;;;;2.38;1.85;;;;;;;;;;5030469;28;20209;-31
2022/05/19 07:33:04;;;;;;;6.40;2.28;;;;;;;;;;5020776;28;20199;-31
2022/05/19 07:35:32;;;;;;;3.22;1.83;;;;;;;;;;5022009;28;20333;-33
2022/05/19 07:37:59;;;;;;;3.33;1.63;;;;;;;;;;5025407;28;20205;-34
2022/05/19 07:40:27;;;;;;;9.45;2.40;;;;;;;;;;5027843;28;20213;-30
2022/05/19 07:43:35;;;;;;;2.60;1.70;;;;;;;;;;5031368;28;20222;-30
2022/05/19 07:45:42;;;;;;;1.83;1.60;;;;;;;;;;5032189;28;20237;-32
2022/05/19 07:48:09;;;;;;;3.15;1.95;;;;;;;;;;5022610;28;20213;-33
2022/05/19 07:50:36;;;;;;;2.85;1.98;;;;;;;;;;5025660;28;20206;-33
2022/05/19 07:53:03;;;;;;;10.00;2.65;;;;;;;;;;5028884;28;20217;-32
2022/05/19 07:55:32;;;;;;;2.63;2.00;;;;;;;;;;5019881;28;20328;-34
2022/05/19 07:58:00;;;;;;;4.65;2.03;;;;;;;;;;5025086;28;20202;-33
2022/05/19 08:00:27;;;;;;;3.22;2.10;;;;;;;;;;5032747;28;20272;-30
2022/05/19 08:02:54;;;;;;;4.13;2.00;;;;;;;;;;5026522;28;20233;-32
2022/05/19 08:05:21;;;;;;;2.10;1.90;;;;;;;;;;5020273;28;20199;-30
2022/05/19 08:07:48;;;;;;;3.50;2.28;;;;;;;;;;5032586;28;20203;-33
2022/05/19 08:10:23;;;;;;;2.58;2.10;;;;;;;;;;5030428;28;20281;-33
2022/05/19 08:15:37;;;;;;;3.58;2.15;;;;;;;;;;5032648;28;20353;-32
2022/05/19 08:18:06;;;;;;;3.65;2.30;;;;;;;;;;5020297;28;20207;-33
2022/05/19 08:20:33;;;;;;;4.63;2.15;;;;;;;;;;5023054;28;20203;-33
2022/05/19 08:23:01;;;;;;;2.30;2.10;;;;;;;;;;5035131;28;20218;-33
2022/05/19 08:25:28;;;;;;;2.03;1.83;;;;;;;;;;5029635;28;20300;-31
2022/05/19 08:27:58;;;;;;;5.32;2.28;;;;;;;;;;5030657;28;20210;-31
2022/05/19 08:30:26;;;;;;;4.22;2.05;;;;;;;;;;5035032;28;20224;-30
2022/05/19 08:32:53;;;;;;;7.40;2.15;;;;;;;;;;5026560;28;20645;-34
2022/05/19 08:35:21;;;;;;;2.38;2.13;;;;;;;;;;5027843;28;20289;-33
2022/05/19 08:37:48;;;;;;;2.63;2.10;;;;;;;;;;5034574;28;20259;-31
2022/05/19 08:40:16;;;;;;;2.53;1.65;;;;;;;;;;5035271;28;20221;-33
2022/05/19 08:42:44;;;;;;;2.33;2.10;;;;;;;;;;5030144;28;20292;-31
2022/05/19 08:45:19;;;;;;;2.25;1.88;;;;;;;;;;5030377;28;20202;-31
2022/05/19 08:47:48;;;;;;;2.50;2.30;;;;;;;;;;5029198;28;20205;-32
2022/05/19 08:50:28;;;;;;;4.63;1.80;;;;;;;;;;5021674;28;20205;-31
2022/05/19 08:52:55;;;;;;;6.95;2.38;;;;;;;;;;5033175;28;20197;-34
2022/05/19 08:55:22;;;;;;;2.88;2.15;;;;;;;;;;5014251;28;20221;-33
2022/05/19 08:57:56;;;;;;;2.55;1.90;;;;;;;;;;5018386;28;20701;-33
2022/05/19 09:00:28;;;;;;;2.25;1.83;;;;;;;;;;5026133;28;20202;-34
2022/05/19 09:03:05;;;;;;;2.28;1.92;;;;;;;;;;5027485;28;20229;-34
2022/05/19 09:05:41;;;;;;;2.10;1.90;;;;;;;;;;5029843;28;20237;-33
2022/05/19 09:08:15;;;;;;;3.92;2.08;;;;;;;;;;5033536;28;20207;-34
2022/05/19 09:10:49;;;;;;;6.78;2.00;;;;;;;;;;5033795;28;20244;-32
2022/05/19 09:13:23;;;;;;;3.50;1.88;;;;;;;;;;5022760;28;20203;-34
2022/05/19 09:15:52;;;;;;;2.90;1.88;;;;;;;;;;5029850;28;20226;-31
2022/05/19 09:18:21;;;;;;;2.88;2.00;;;;;;;;;;5020514;28;20207;-33
2022/05/19 09:20:51;;;;;;;2.83;2.42;;;;;;;;;;5029426;28;20292;-31
2022/05/19 09:23:19;;;;;;;2.10;1.90;;;;;;;;;;5027228;28;20214;-32
2022/05/19 09:25:48;;;;;;;3.15;1.95;;;;;;;;;;5011365;28;20230;-31
2022/05/19 09:28:15;;;;;;;3.03;2.38;;;;;;;;;;5015664;28;20556;-34
2022/05/19 09:30:50;;;;;;;4.07;2.17;;;;;;;;;;5030166;28;20213;-31
2022/05/19 09:33:20;;;;;;;2.67;2.00;;;;;;;;;;5020675;28;20200;-35
2022/05/19 09:35:49;;;;;;;3.92;2.03;;;;;;;;;;5021743;28;20232;-31
2022/05/19 09:38:26;;;;;;;2.40;2.30;;;;;;;;;;5030703;28;20207;-36
2022/05/19 09:40:56;;;;;;;2.17;2.03;;;;;;;;;;5030816;28;20224;-32
2022/05/19 09:43:27;;;;;;;3.78;2.60;;;;;;;;;;5015772;28;20226;-32
2022/05/19 09:46:03;;;;;;;4.18;2.17;;;;;;;;;;5029980;28;20227;-33
2022/05/19 09:48:33;;;;;;;10.00;2.78;;;;;;;;;;5013194;28;20208;-31
2022/05/19 09:51:02;;;;;;;3.83;2.45;;;;;;;;;;5028824;28;20237;-32
2022/05/19 09:53:30;;;;;;;2.42;2.22;;;;;;;;;;5029488;28;20198;-30
2022/05/19 09:55:58;;;;;;;2.67;2.47;;;;;;;;;;5030695;28;20228;-34
2022/05/19 09:58:27;;;;;;;5.10;2.30;;;;;;;;;;5014676;28;20210;-30
2022/05/19 10:00:55;;;;;;;3.13;2.50;;;;;;;;;;5029523;28;20201;-31
2022/05/19 10:03:25;;;;;;;2.50;2.00;;;;;;;;;;5017692;28;20288;-34
2022/05/19 10:05:57;;;;;;;3.53;2.80;;;;;;;;;;5022798;28;20233;-33
2022/05/19 10:08:26;;;;;;;3.42;2.33;;;;;;;;;;5030006;28;20220;-30
2022/05/19 10:11:00;;;;;;;3.42;2.25;;;;;;;;;;5019970;28;20210;-30
2022/05/19 10:13:34;;;;;;;3.53;2.38;;;;;;;;;;5021977;28;20206;-31
2022/05/19 10:16:04;;;;;;;2.65;2.42;;;;;;;;;;5029452;28;20225;-33
2022/05/19 10:18:39;;;;;;;3.67;2.22;;;;;;;;;;5013444;28;20217;-34
2022/05/19 10:21:12;;;;;;;3.10;2.67;;;;;;;;;;5023214;28;20287;-36
2022/05/19 10:23:47;;;;;;;5.65;2.25;;;;;;;;;;5029662;28;20240;-32
2022/05/19 10:26:22;;;;;;;3.03;2.47;;;;;;;;;;5029896;28;20231;-33
2022/05/19 10:31:50;;;;;;;4.50;2.88;;;;;;;;;;5026918;28;20209;-32
2022/05/19 10:34:27;;;;;;;2.60;2.40;;;;;;;;;;5015515;28;20204;-33
2022/05/19 10:37:02;;;;;;;2.90;2.50;;;;;;;;;;5029713;28;20741;-32
2022/05/19 10:42:01;;;;;;;3.92;2.35;;;;;;;;;;5004981;28;20211;-37
2022/05/19 10:44:41;;;;;;;4.30;2.50;;;;;;;;;;5012897;28;20225;-39
2022/05/19 10:47:12;;;;;;;3.20;2.40;;;;;;;;;;5007896;28;20228;-33
2022/05/19 10:50:00;;;;;;;2.70;2.47;;;;;;;;;;5005178;28;20206;-38
2022/05/19 10:52:36;;;;;;;3.42;2.53;;;;;;;;;;5008048;28;20229;-35
2022/05/19 10:55:09;;;;;;;4.35;2.63;;;;;;;;;;5004166;28;20227;-33
2022/05/19 10:57:53;;;;;;;4.68;2.42;;;;;;;;;;5001169;28;20205;-38
2022/05/19 11:00:22;;;;;;;4.00;2.40;;;;;;;;;;4998636;28;20269;-39
2022/05/19 11:03:01;;;;;;;2.78;2.55;;;;;;;;;;4995204;28;20206;-33
2022/05/19 11:05:35;;;;;;;3.42;2.60;;;;;;;;;;5003944;28;20234;-36
2022/05/19 11:08:08;;;;;;;2.83;2.47;;;;;;;;;;5002626;28;20228;-32
2022/05/19 11:10:39;;;;;;;4.40;2.55;;;;;;;;;;5003583;28;20206;-32
2022/05/19 11:13:15;;;;;;;3.58;2.67;;;;;;;;;;5003372;28;20232;-40
2022/05/19 11:15:47;;;;;;;4.40;2.83;;;;;;;;;;5001248;28;20232;-31
2022/05/19 11:18:18;;;;;;;7.47;2.90;;;;;;;;;;4994457;28;20211;-36
2022/05/19 11:20:54;;;;;;;3.00;2.70;;;;;;;;;;4989187;28;20299;-41
2022/05/19 11:23:25;;;;;;;3.70;2.58;;;;;;;;;;4998624;28;20208;-39
2022/05/19 11:28:44;;;;;;;5.32;2.72;;;;;;;;;;5000759;28;20205;-38
2022/05/19 11:31:14;;;;;;;3.70;2.65;;;;;;;;;;5002131;28;20210;-42
2022/05/19 11:33:43;;;;;;;3.28;2.65;;;;;;;;;;5002790;28;20214;-37
2022/05/19 11:36:13;;;;;;;2.63;2.40;;;;;;;;;;4998322;28;20227;-38
2022/05/19 11:38:47;;;;;;;2.72;2.53;;;;;;;;;;4995754;28;20214;-36
2022/05/19 11:41:17;;;;;;;3.72;2.58;;;;;;;;;;4997306;28;20211;-38
2022/05/19 11:43:46;;;;;;;4.10;2.70;;;;;;;;;;5001933;28;20265;-35
2022/05/19 11:46:17;;;;;;;2.83;2.63;;;;;;;;;;4998600;28;20223;-35
2022/05/19 11:57:13;;;;;;;4.50;2.95;;;;;;;;;;5002266;28;20233;-33
2022/05/19 11:59:40;;;;;;;5.40;2.78;;;;;;;;;;5005481;28;20211;-36
2022/05/19 12:02:09;;;;;;;3.55;3.05;;;;;;;;;;5000783;28;20202;-37
2022/05/19 12:04:38;;;;;;;6.93;2.85;;;;;;;;;;5009106;28;20257;-38
2022/05/19 12:07:09;;;;;;;2.88;2.67;;;;;;;;;;5015050;28;20230;-36
2022/05/19 12:09:44;;;;;;;3.53;2.65;;;;;;;;;;4996058;28;20207;-36
2022/05/19 12:12:18;;;;;;;5.57;2.78;;;;;;;;;;5002078;28;20202;-34
2022/05/19 12:14:47;;;;;;;5.28;2.65;;;;;;;;;;5002389;28;20252;-39
2022/05/19 12:17:31;;;;;;;3.17;2.83;;;;;;;;;;4998204;28;20231;-39
2022/05/19 12:20:02;;;;;;;5.65;2.78;;;;;;;;;;4996545;28;20234;-34
2022/05/19 12:22:38;;;;;;;4.43;2.60;;;;;;;;;;5002703;28;20203;-39
2022/05/19 12:25:17;;;;;;;3.75;2.53;;;;;;;;;;5000697;28;20294;-31
2022/05/19 12:27:54;;;;;;;5.43;2.72;;;;;;;;;;4999002;28;20229;-35
2022/05/19 12:33:22;;;;;;;2.85;2.65;;;;;;;;;;5006061;28;20254;-36
2022/05/19 12:35:50;;;;;;;3.30;2.42;;;;;;;;;;4994904;28;20314;-32
2022/05/19 12:38:28;;;;;;;3.30;3.00;;;;;;;;;;5002193;28;20199;-33
2022/05/19 12:40:58;;;;;;;4.95;2.85;;;;;;;;;;5014575;28;20219;-40
2022/05/19 12:43:30;;;;;;;4.80;3.03;;;;;;;;;;5000906;28;20236;-36
2022/05/19 12:45:59;;;;;;;3.03;2.70;;;;;;;;;;5005293;28;20226;-34
2022/05/19 12:48:46;;;;;;;2.95;2.75;;;;;;;;;;5010216;28;20203;-40
2022/05/19 12:51:28;;;;;;;3.40;2.85;;;;;;;;;;4999500;28;20266;-39
2022/05/19 12:54:14;;;;;;;2.80;2.58;;;;;;;;;;4997779;28;20204;-36
2022/05/19 12:57:15;;;;;;;3.20;2.85;;;;;;;;;;5006687;28;20231;-34
2022/05/19 12:59:49;;;;;;;2.92;2.67;;;;;;;;;;5004869;28;20214;-38
2022/05/19 13:02:24;;;;;;;4.35;2.70;;;;;;;;;;5001329;28;20206;-32
2022/05/19 13:04:54;;;;;;;3.83;2.38;;;;;;;;;;4997255;28;20218;-31
2022/05/19 13:07:24;;;;;;;2.78;2.58;;;;;;;;;;5008400;28;20223;-37
2022/05/19 13:09:55;;;;;;;3.03;2.72;;;;;;;;;;5005595;28;20258;-33
2022/05/19 13:12:24;;;;;;;3.85;2.38;;;;;;;;;;5001448;28;20204;-36
2022/05/19 13:14:55;;;;;;;3.75;2.00;;;;;;;;;;4999968;28;20204;-36
2022/05/19 13:17:25;;;;;;;5.40;2.70;;;;;;;;;;4997947;28;20223;-34
2022/05/19 13:19:52;;;;;;;6.80;2.78;;;;;;;;;;5002525;28;20202;-39
2022/05/19 13:22:25;;;;;;;2.45;2.25;;;;;;;;;;5004638;28;20250;-36
2022/05/19 13:24:52;;;;;;;2.70;2.30;;;;;;;;;;4997652;28;20242;-36
2022/05/19 13:30:22;;;;;;;5.60;2.40;;;;;;;;;;4964529;28;20203;-32
2022/05/19 13:32:49;;;;;;;4.38;2.00;;;;;;;;;;5003466;28;20214;-34
2022/05/19 13:35:19;;;;;;;1.92;1.70;;;;;;;;;;5005877;28;20199;-39
2022/05/19 13:37:47;;;;;;;2.45;1.80;;;;;;;;;;5001923;28;20215;-37
2022/05/19 13:40:16;;;;;;;2.17;2.00;;;;;;;;;;4997555;28;20302;-35
2022/05/19 13:42:51;;;;;;;4.78;2.20;;;;;;;;;;4997928;28;20207;-33
2022/05/19 13:45:21;;;;;;;2.25;1.77;;;;;;;;;;5006661;28;20214;-34
2022/05/19 13:47:51;;;;;;;3.47;2.15;;;;;;;;;;4995750;28;20211;-34
2022/05/19 13:50:19;;;;;;;3.22;1.98;;;;;;;;;;5000814;28;20267;-38
2022/05/19 13:52:50;;;;;;;1.90;1.80;;;;;;;;;;4995633;28;20208;-34
2022/05/19 13:55:28;;;;;;;2.13;1.90;;;;;;;;;;4999505;28;20191;-37
2022/05/19 13:57:55;;;;;;;4.03;2.00;;;;;;;;;;5004957;28;20208;-35
2022/05/19 14:00:24;;;;;;;4.38;1.83;;;;;;;;;;5001147;28;20235;-38
2022/05/19 14:02:53;;;;;;;2.90;2.05;;;;;;;;;;4993455;28;20276;-35
2022/05/19 14:05:23;;;;;;;4.50;2.03;;;;;;;;;;5000046;28;20218;-32
2022/05/19 14:07:51;;;;;;;3.42;2.00;;;;;;;;;;5002183;28;20200;-39
2022/05/19 14:10:22;;;;;;;4.97;2.10;;;;;;;;;;4993187;28;20208;-33
2022/05/19 14:12:52;;;;;;;3.67;2.53;;;;;;;;;;4992936;28;20267;-34
2022/05/19 14:15:24;;;;;;;4.40;2.10;;;;;;;;;;5010356;28;20203;-38
2022/05/19 14:17:55;;;;;;;4.68;2.30;;;;;;;;;;5003048;28;20290;-34
2022/05/19 14:20:25;;;;;;;4.47;1.95;;;;;;;;;;5005568;28;20203;-36
2022/05/19 14:22:53;;;;;;;2.92;2.17;;;;;;;;;;5001047;28;20299;-35
2022/05/19 14:25:22;;;;;;;2.63;1.75;;;;;;;;;;4991597;28;20234;-34
2022/05/19 14:28:01;;;;;;;2.88;2.13;;;;;;;;;;5004370;28;20210;-33
2022/05/19 14:30:30;;;;;;;2.33;2.03;;;;;;;;;;4993256;28;20271;-36
2022/05/19 14:33:00;;;;;;;3.30;2.17;;;;;;;;;;4995390;28;20196;-35
2022/05/19 14:35:38;;;;;;;3.17;1.95;;;;;;;;;;5003835;28;20200;-35
2022/05/19 14:38:06;;;;;;;1.90;1.70;;;;;;;;;;4992646;28;20200;-32
2022/05/19 14:43:25;;;;;;;2.85;2.13;;;;;;;;;;5007963;28;20286;-37
2022/05/19 14:45:53;;;;;;;7.07;1.88;;;;;;;;;;5003091;28;20280;-31
2022/05/19 14:48:28;;;;;;;2.15;1.52;;;;;;;;;;4999597;28;20231;-39
2022/05/19 14:50:57;;;;;;;2.58;1.90;;;;;;;;;;4999730;28;20203;-32
2022/05/19 14:53:26;;;;;;;3.00;1.95;;;;;;;;;;4993286;28;20211;-32
2022/05/19 14:55:57;;;;;;;3.70;2.08;;;;;;;;;;4996483;28;20219;-36
2022/05/19 14:58:25;;;;;;;1.92;1.73;;;;;;;;;;5007836;28;20242;-39
2022/05/19 15:00:52;;;;;;;9.43;2.10;;;;;;;;;;4993635;28;20254;-33
2022/05/19 15:03:20;;;;;;;3.67;1.80;;;;;;;;;;4991830;28;20246;-33
2022/05/19 15:05:49;;;;;;;2.88;1.83;;;;;;;;;;4998036;28;20258;-32
2022/05/19 15:08:17;;;;;;;5.05;1.80;;;;;;;;;;5011267;28;20210;-39
2022/05/19 15:10:44;;;;;;;1.75;1.65;;;;;;;;;;5011700;28;20657;-37
2022/05/19 15:13:12;;;;;;;4.38;1.90;;;;;;;;;;5000206;28;20203;-38
2022/05/19 15:15:40;;;;;;;5.53;1.73;;;;;;;;;;5007511;28;20441;-37
2022/05/19 15:18:08;;;;;;;6.07;1.95;;;;;;;;;;5009919;28;20211;-36
2022/05/19 15:20:36;;;;;;;6.15;2.10;;;;;;;;;;5000322;28;20223;-35
2022/05/19 15:23:06;;;;;;;3.50;2.20;;;;;;;;;;4996402;28;20208;-33
2022/05/19 15:25:34;;;;;;;5.60;2.08;;;;;;;;;;5007589;28;20263;-38
2022/05/19 15:28:01;;;;;;;3.60;2.50;;;;;;;;;;4998957;28;20203;-37